Robertson, Wyoming
Current Conditions -  °F | °C
As of 2:15 PM on Sunday 28 Dec 2014 (Local Time) from KFBR Reporting Station
Overcast Overcast  
Wind Chill:   Ceiling: 9000
Heat Index: 24°   Visibility: 10mi
Dew Point: 16°   Wind: 24mph
Humidity: 71%   Direction: 260°W
Pressure: 29.92"   Gusts: 31mph
Location:  41.19°N, 110.41°W
Report Text: KFBR 282115Z AUTO 26021G27KT 10SM SCT060 SCT075 OVC090 M04/M09 A2992 RMK AO2 T10421087
Loading
Personal Weather Stations






























Interactive Weather Map New forecast layout! Learn more

10-Day Weather Forecast

Advertisements
Track Severe Weather on mobile